Beijing, China
Current Conditions -  °F | °C
As of 11:00 PM on Saturday 20 Dec 2014 (Local Time) from ZBAA Reporting Station
Clear Clear  
Wind Chill: 12°   Ceiling: Unl
Heat Index: 27°   Visibility: 6mi
Dew Point: -2°   Wind: 22mph
Humidity: 29%   Direction: 350°N
Pressure: 30.48"   Gusts: NA
Location:  39.93°N, 116.4°E
Report Text: ZBAA 201500Z 35010MPS CAVOK M03/M19 Q1032 NOSIG
Loading
Personal Weather Stations






























Interactive Weather Map New forecast layout! Learn more

10-Day Weather Forecast

Advertisements
Track Severe Weather on mobile